Time;durP1;ratioP1;P1;durP2;ratioP2;P2;SDS_P1;SDS_P2;PMS_P1;PMS_P2;Temp;Humidity;BMP_temperature;BMP_pressure;BME280_temperature;BME280_humidity;BME280_pressure;Samples;Min_cycle;Max_cycle;Signal;HPM_P1;HPM_P2
2021/12/29 00:01:37;;;;;;;2.75;1.15;;;;;;;;;;4958177;29;20086;-81
2021/12/29 00:04:05;;;;;;;2.88;0.85;;;;;;;;;;4956846;28;20046;-82
2021/12/29 00:06:32;;;;;;;4.68;1.17;;;;;;;;;;4958296;29;20040;-82
2021/12/29 00:09:03;;;;;;;7.15;1.42;;;;;;;;;;4956796;29;20491;-83
2021/12/29 00:11:31;;;;;;;4.28;1.00;;;;;;;;;;4957842;29;20479;-83
2021/12/29 00:13:59;;;;;;;6.63;1.00;;;;;;;;;;4956724;29;20491;-81
2021/12/29 00:16:29;;;;;;;2.65;1.30;;;;;;;;;;4956919;29;20047;-80
2021/12/29 00:18:56;;;;;;;5.75;1.40;;;;;;;;;;4957517;29;20406;-81
2021/12/29 00:21:23;;;;;;;4.28;0.93;;;;;;;;;;4956811;29;20050;-80
2021/12/29 00:23:58;;;;;;;3.80;1.02;;;;;;;;;;4957900;29;20047;-82
2021/12/29 00:26:26;;;;;;;5.22;1.05;;;;;;;;;;4958128;29;20074;-81
2021/12/29 00:28:58;;;;;;;5.28;1.35;;;;;;;;;;4956478;29;20051;-83
2021/12/29 00:31:27;;;;;;;6.80;2.05;;;;;;;;;;4957432;29;20041;-80
2021/12/29 00:34:13;;;;;;;7.10;1.30;;;;;;;;;;4956727;28;20539;-83
2021/12/29 00:36:59;;;;;;;3.78;0.93;;;;;;;;;;4958013;29;20058;-81
2021/12/29 00:39:47;;;;;;;2.35;0.90;;;;;;;;;;4956654;29;20529;-83
2021/12/29 00:42:14;;;;;;;2.80;1.00;;;;;;;;;;4957089;28;20051;-80
2021/12/29 00:45:12;;;;;;;4.93;1.15;;;;;;;;;;4955755;29;20163;-81
2021/12/29 00:47:42;;;;;;;6.65;1.35;;;;;;;;;;4957878;29;20043;-83
2021/12/29 00:50:13;;;;;;;2.80;0.95;;;;;;;;;;4957982;29;20051;-83
2021/12/29 00:52:41;;;;;;;4.22;1.17;;;;;;;;;;4957701;29;20131;-81
2021/12/29 00:55:12;;;;;;;4.60;1.10;;;;;;;;;;4955964;29;20443;-81
2021/12/29 00:57:40;;;;;;;5.88;1.27;;;;;;;;;;4957607;29;20422;-83
2021/12/29 01:00:09;;;;;;;4.82;1.58;;;;;;;;;;4956409;29;20058;-80
2021/12/29 01:02:42;;;;;;;5.38;1.15;;;;;;;;;;4957382;29;20071;-80
2021/12/29 01:05:11;;;;;;;4.32;1.20;;;;;;;;;;4957272;29;20490;-80
2021/12/29 01:07:38;;;;;;;5.38;1.30;;;;;;;;;;4957235;29;20411;-80
2021/12/29 01:10:07;;;;;;;6.60;1.20;;;;;;;;;;4956042;29;20464;-80
2021/12/29 01:12:35;;;;;;;3.05;1.35;;;;;;;;;;4956233;29;20365;-81
2021/12/29 01:15:03;;;;;;;5.60;1.23;;;;;;;;;;4956303;29;20039;-83
2021/12/29 01:17:31;;;;;;;2.60;0.90;;;;;;;;;;4956740;29;20058;-80
2021/12/29 01:20:00;;;;;;;3.85;1.27;;;;;;;;;;4957032;29;20078;-80
2021/12/29 01:22:28;;;;;;;5.55;1.17;;;;;;;;;;4956100;29;20070;-81
2021/12/29 01:24:55;;;;;;;5.43;1.23;;;;;;;;;;4956029;29;20047;-82
2021/12/29 01:27:27;;;;;;;4.65;1.80;;;;;;;;;;4957051;29;20126;-80
2021/12/29 01:29:54;;;;;;;6.80;1.50;;;;;;;;;;4956820;29;20043;-83
2021/12/29 01:32:22;;;;;;;6.43;1.70;;;;;;;;;;4957036;29;20074;-80
2021/12/29 01:34:50;;;;;;;7.05;1.58;;;;;;;;;;4955672;29;20043;-83
2021/12/29 01:37:21;;;;;;;4.93;1.15;;;;;;;;;;4955342;29;20384;-83
2021/12/29 01:39:52;;;;;;;7.82;1.35;;;;;;;;;;4956508;29;20085;-80
2021/12/29 01:42:23;;;;;;;7.10;1.40;;;;;;;;;;4956116;29;20147;-80
2021/12/29 01:44:53;;;;;;;8.88;1.55;;;;;;;;;;4956813;29;20443;-82
2021/12/29 01:47:33;;;;;;;8.48;1.55;;;;;;;;;;4956311;28;20154;-82
2021/12/29 01:50:01;;;;;;;6.30;1.55;;;;;;;;;;4956786;29;20039;-81
2021/12/29 01:52:35;;;;;;;6.00;1.58;;;;;;;;;;4956547;29;20468;-80
2021/12/29 01:55:06;;;;;;;6.57;1.60;;;;;;;;;;4938638;29;20054;-80
2021/12/29 01:57:33;;;;;;;6.78;1.48;;;;;;;;;;4956317;29;20045;-80
2021/12/29 02:00:01;;;;;;;7.43;1.40;;;;;;;;;;4954962;29;20110;-80
2021/12/29 02:02:38;;;;;;;5.82;1.33;;;;;;;;;;4956300;29;20051;-80
2021/12/29 02:05:06;;;;;;;7.30;1.58;;;;;;;;;;4956331;29;20402;-80
2021/12/29 02:07:48;;;;;;;6.43;1.30;;;;;;;;;;4956337;29;20495;-80
2021/12/29 02:10:22;;;;;;;7.22;1.38;;;;;;;;;;4956140;29;20051;-80
2021/12/29 02:12:49;;;;;;;8.20;1.70;;;;;;;;;;4955047;29;20048;-81
2021/12/29 02:15:18;;;;;;;4.55;1.30;;;;;;;;;;4956234;29;20039;-83
2021/12/29 02:17:49;;;;;;;12.07;2.22;;;;;;;;;;4955605;29;20047;-80
2021/12/29 02:20:21;;;;;;;7.72;1.58;;;;;;;;;;4954521;29;20138;-83
2021/12/29 02:23:00;;;;;;;4.60;1.50;;;;;;;;;;4954819;29;20055;-80
2021/12/29 02:25:46;;;;;;;6.90;1.52;;;;;;;;;;4955914;29;20142;-81
2021/12/29 02:28:14;;;;;;;9.07;1.58;;;;;;;;;;4955968;29;20047;-80
2021/12/29 02:30:41;;;;;;;4.75;1.58;;;;;;;;;;4955906;29;20491;-81
2021/12/29 02:33:13;;;;;;;7.68;1.80;;;;;;;;;;4954934;29;20375;-83
2021/12/29 02:35:42;;;;;;;4.20;1.20;;;;;;;;;;4955541;29;20118;-80
2021/12/29 02:38:46;;;;;;;12.68;1.95;;;;;;;;;;4955442;29;20402;-80
2021/12/29 02:41:15;;;;;;;7.30;1.63;;;;;;;;;;4952338;29;20086;-80
2021/12/29 02:43:44;;;;;;;3.90;1.30;;;;;;;;;;4955036;29;20134;-82
2021/12/29 02:46:13;;;;;;;6.95;1.50;;;;;;;;;;4955685;29;20043;-80
2021/12/29 02:48:58;;;;;;;8.82;1.77;;;;;;;;;;4955912;29;20051;-83
2021/12/29 02:51:34;;;;;;;7.20;1.50;;;;;;;;;;4953955;28;20089;-80
2021/12/29 02:54:02;;;;;;;8.98;1.67;;;;;;;;;;4954836;28;20059;-80
2021/12/29 02:56:35;;;;;;;6.30;1.55;;;;;;;;;;4937834;28;20651;-80
2021/12/29 02:59:03;;;;;;;7.72;1.65;;;;;;;;;;4953554;29;20053;-81
2021/12/29 03:01:31;;;;;;;2.88;0.82;;;;;;;;;;4954160;29;20049;-80
2021/12/29 03:03:59;;;;;;;6.40;2.13;;;;;;;;;;4954233;28;20066;-82
2021/12/29 03:06:27;;;;;;;5.05;1.27;;;;;;;;;;4953966;29;20051;-82
2021/12/29 03:08:56;;;;;;;10.32;1.55;;;;;;;;;;4955647;29;20054;-80
2021/12/29 03:11:30;;;;;;;6.43;1.75;;;;;;;;;;4955423;29;20073;-83
2021/12/29 03:14:01;;;;;;;10.98;1.77;;;;;;;;;;4954005;29;20483;-81
2021/12/29 03:16:29;;;;;;;8.52;1.90;;;;;;;;;;4954123;29;20055;-80
2021/12/29 03:18:57;;;;;;;14.20;1.75;;;;;;;;;;4953385;29;20521;-83
2021/12/29 03:21:25;;;;;;;3.78;1.35;;;;;;;;;;4953972;29;20609;-82
2021/12/29 03:23:53;;;;;;;6.05;1.60;;;;;;;;;;4953752;29;20130;-81
2021/12/29 03:26:20;;;;;;;8.40;1.63;;;;;;;;;;4953690;29;20047;-80
2021/12/29 03:28:49;;;;;;;9.25;2.03;;;;;;;;;;4955143;29;20066;-80
2021/12/29 03:31:21;;;;;;;9.00;1.52;;;;;;;;;;4954991;29;20063;-83
2021/12/29 03:33:49;;;;;;;9.30;1.60;;;;;;;;;;4954003;29;20045;-83
2021/12/29 03:36:17;;;;;;;6.35;1.77;;;;;;;;;;4954857;29;20043;-80
2021/12/29 03:38:48;;;;;;;5.60;1.40;;;;;;;;;;4954655;29;20043;-83
2021/12/29 03:41:17;;;;;;;6.93;1.48;;;;;;;;;;4937529;29;20050;-80
2021/12/29 03:43:44;;;;;;;9.57;2.05;;;;;;;;;;4953111;29;20151;-81
2021/12/29 03:46:13;;;;;;;5.43;1.77;;;;;;;;;;4954636;29;20097;-80
2021/12/29 03:48:41;;;;;;;4.50;1.27;;;;;;;;;;4953741;29;20069;-80
2021/12/29 03:51:10;;;;;;;5.88;1.95;;;;;;;;;;4954485;29;20043;-81
2021/12/29 03:53:38;;;;;;;10.00;3.90;;;;;;;;;;4954097;28;20039;-81
2021/12/29 03:56:06;;;;;;;9.52;3.50;;;;;;;;;;4953601;29;20097;-81
2021/12/29 03:58:33;;;;;;;12.10;4.05;;;;;;;;;;4953491;29;20050;-80
2021/12/29 04:01:10;;;;;;;6.30;2.80;;;;;;;;;;4954339;29;20131;-83
2021/12/29 04:03:38;;;;;;;7.80;2.17;;;;;;;;;;4941306;29;20412;-82
2021/12/29 04:06:06;;;;;;;10.23;2.63;;;;;;;;;;4954024;29;20073;-80
2021/12/29 04:08:35;;;;;;;9.27;2.25;;;;;;;;;;4955212;28;20098;-81
2021/12/29 04:11:03;;;;;;;8.32;2.38;;;;;;;;;;4957932;29;20059;-81
2021/12/29 04:13:30;;;;;;;6.60;2.28;;;;;;;;;;4957961;29;20118;-80
2021/12/29 04:15:59;;;;;;;12.23;1.88;;;;;;;;;;4957048;29;20110;-81
2021/12/29 04:18:26;;;;;;;7.93;2.28;;;;;;;;;;4957612;29;20039;-81
2021/12/29 04:21:01;;;;;;;8.45;1.98;;;;;;;;;;4957041;29;20074;-82
2021/12/29 04:23:37;;;;;;;8.20;1.83;;;;;;;;;;4956956;29;20062;-81
2021/12/29 04:26:07;;;;;;;9.50;2.28;;;;;;;;;;4958073;29;20567;-80
2021/12/29 04:28:35;;;;;;;8.32;2.50;;;;;;;;;;4956629;29;20054;-80
2021/12/29 04:31:28;;;;;;;12.63;2.45;;;;;;;;;;4956203;29;20051;-80
2021/12/29 04:33:55;;;;;;;10.75;1.83;;;;;;;;;;4957429;29;20556;-80
2021/12/29 04:36:27;;;;;;;7.68;1.80;;;;;;;;;;4956906;29;20044;-80
2021/12/29 04:38:57;;;;;;;13.95;2.15;;;;;;;;;;4957546;29;20035;-81
2021/12/29 04:41:24;;;;;;;9.90;2.05;;;;;;;;;;4957586;29;20057;-80
2021/12/29 04:43:54;;;;;;;9.07;1.98;;;;;;;;;;4952517;29;20055;-84
2021/12/29 04:46:28;;;;;;;13.27;2.47;;;;;;;;;;4938182;29;20488;-82
2021/12/29 04:49:01;;;;;;;9.25;1.80;;;;;;;;;;4938184;29;20464;-81
2021/12/29 04:51:36;;;;;;;11.13;2.13;;;;;;;;;;4938072;29;20062;-80
2021/12/29 04:54:06;;;;;;;9.32;1.67;;;;;;;;;;4952336;28;20071;-81
2021/12/29 04:56:34;;;;;;;10.10;2.30;;;;;;;;;;4952712;29;20056;-82
2021/12/29 04:59:05;;;;;;;7.63;1.65;;;;;;;;;;4938194;29;20463;-82
2021/12/29 05:01:33;;;;;;;6.05;1.80;;;;;;;;;;4937049;29;20121;-83
2021/12/29 05:04:01;;;;;;;6.68;1.40;;;;;;;;;;4937838;29;20036;-83
2021/12/29 05:09:17;;;;;;;11.07;1.70;;;;;;;;;;4937043;29;20126;-80
2021/12/29 05:11:46;;;;;;;9.70;2.33;;;;;;;;;;4952534;29;20666;-80
2021/12/29 05:14:17;;;;;;;10.68;2.30;;;;;;;;;;4937921;29;20040;-80
2021/12/29 05:16:45;;;;;;;8.68;1.70;;;;;;;;;;4937614;29;20128;-82
2021/12/29 05:19:12;;;;;;;6.85;1.75;;;;;;;;;;4938470;29;20039;-80
2021/12/29 05:21:40;;;;;;;7.90;2.10;;;;;;;;;;4936364;29;20115;-81
2021/12/29 05:24:08;;;;;;;7.10;2.03;;;;;;;;;;4937602;29;20044;-83
2021/12/29 05:26:40;;;;;;;7.38;1.70;;;;;;;;;;4937593;29;20052;-83
2021/12/29 05:29:07;;;;;;;8.45;1.98;;;;;;;;;;4936035;29;20468;-80
2021/12/29 05:31:35;;;;;;;6.63;1.80;;;;;;;;;;4951984;29;20572;-80
2021/12/29 05:34:03;;;;;;;9.82;1.90;;;;;;;;;;4936376;29;20150;-80
2021/12/29 05:36:30;;;;;;;7.13;2.00;;;;;;;;;;4936142;29;20043;-80
2021/12/29 05:38:58;;;;;;;7.80;1.65;;;;;;;;;;4937528;29;20126;-82
2021/12/29 05:41:25;;;;;;;9.07;1.95;;;;;;;;;;4936068;29;20389;-81
2021/12/29 05:43:53;;;;;;;8.00;1.90;;;;;;;;;;4936786;29;20066;-81
2021/12/29 05:46:20;;;;;;;8.15;1.65;;;;;;;;;;4935718;29;20048;-80
2021/12/29 05:48:50;;;;;;;10.05;2.55;;;;;;;;;;4935877;29;20598;-82
2021/12/29 05:51:18;;;;;;;4.72;1.60;;;;;;;;;;4937294;29;20048;-80
2021/12/29 05:53:46;;;;;;;11.27;1.98;;;;;;;;;;4935485;29;20040;-81
2021/12/29 05:56:14;;;;;;;9.63;1.65;;;;;;;;;;4937127;29;20543;-80
2021/12/29 05:58:42;;;;;;;9.30;2.38;;;;;;;;;;4936873;29;20044;-80
2021/12/29 06:01:11;;;;;;;9.35;1.55;;;;;;;;;;4936918;29;20046;-80
2021/12/29 06:03:39;;;;;;;9.02;2.55;;;;;;;;;;4936906;29;20449;-83
2021/12/29 06:06:07;;;;;;;5.82;1.15;;;;;;;;;;4936503;29;20047;-83
2021/12/29 06:08:37;;;;;;;13.45;2.92;;;;;;;;;;4935504;29;20102;-80
2021/12/29 06:11:05;;;;;;;7.25;1.73;;;;;;;;;;4936508;29;20040;-80
2021/12/29 06:13:32;;;;;;;6.65;1.73;;;;;;;;;;4935546;29;20039;-80
2021/12/29 06:16:04;;;;;;;9.68;1.90;;;;;;;;;;4936028;29;20521;-80
2021/12/29 06:18:32;;;;;;;8.95;1.52;;;;;;;;;;4936280;29;20503;-81
2021/12/29 06:20:59;;;;;;;9.90;2.00;;;;;;;;;;4935299;29;20044;-80
2021/12/29 06:23:26;;;;;;;11.48;2.67;;;;;;;;;;4936483;29;20075;-80
2021/12/29 06:25:55;;;;;;;7.65;1.80;;;;;;;;;;4936310;29;20044;-82
2021/12/29 06:28:22;;;;;;;7.65;2.20;;;;;;;;;;4935212;29;20131;-84
2021/12/29 06:30:50;;;;;;;3.83;1.40;;;;;;;;;;4936019;29;20059;-80
2021/12/29 06:33:18;;;;;;;7.97;2.10;;;;;;;;;;4935436;29;20032;-81
2021/12/29 06:35:45;;;;;;;9.05;2.20;;;;;;;;;;4934545;29;20078;-83
2021/12/29 06:38:14;;;;;;;10.57;2.65;;;;;;;;;;4934982;29;20055;-80
2021/12/29 06:40:41;;;;;;;10.10;2.70;;;;;;;;;;4935306;29;20044;-80
2021/12/29 06:43:10;;;;;;;9.05;3.50;;;;;;;;;;4944866;29;20051;-80
2021/12/29 06:45:38;;;;;;;9.30;2.38;;;;;;;;;;4955468;29;20059;-80
2021/12/29 06:48:07;;;;;;;10.00;2.90;;;;;;;;;;4953885;29;20053;-80
2021/12/29 06:50:35;;;;;;;9.15;2.53;;;;;;;;;;4955032;29;20050;-80
2021/12/29 06:53:03;;;;;;;9.13;2.40;;;;;;;;;;4954045;29;20036;-80
2021/12/29 06:55:30;;;;;;;10.77;2.85;;;;;;;;;;4954776;28;20046;-80
2021/12/29 06:57:58;;;;;;;14.85;3.60;;;;;;;;;;4953462;29;20529;-80
2021/12/29 07:00:25;;;;;;;11.10;2.90;;;;;;;;;;4953821;29;20039;-81
2021/12/29 07:02:54;;;;;;;10.77;2.95;;;;;;;;;;4953805;29;20482;-81
2021/12/29 07:05:21;;;;;;;10.38;3.10;;;;;;;;;;4953702;29;20463;-82
2021/12/29 07:07:50;;;;;;;16.02;5.32;;;;;;;;;;4954515;29;20121;-83
2021/12/29 07:10:22;;;;;;;10.82;3.30;;;;;;;;;;4953485;29;20075;-82
2021/12/29 07:12:58;;;;;;;12.43;4.53;;;;;;;;;;4954813;29;20049;-80
2021/12/29 07:15:29;;;;;;;11.10;2.10;;;;;;;;;;4954551;29;20047;-84
2021/12/29 07:17:58;;;;;;;9.45;2.35;;;;;;;;;;4954766;29;20069;-80
2021/12/29 07:20:28;;;;;;;11.88;2.67;;;;;;;;;;4954738;29;20043;-82
2021/12/29 07:22:56;;;;;;;13.93;2.75;;;;;;;;;;4953623;29;20146;-80
2021/12/29 07:25:24;;;;;;;12.30;2.92;;;;;;;;;;4953698;29;20036;-80
2021/12/29 07:27:54;;;;;;;13.27;3.30;;;;;;;;;;4953324;29;20075;-80
2021/12/29 07:30:22;;;;;;;9.70;3.03;;;;;;;;;;4954443;29;20047;-80
2021/12/29 07:32:50;;;;;;;9.65;2.70;;;;;;;;;;4954716;29;20071;-82
2021/12/29 07:35:17;;;;;;;9.70;2.75;;;;;;;;;;4954634;29;20039;-83
2021/12/29 07:37:48;;;;;;;15.98;4.25;;;;;;;;;;4954505;29;20061;-80
2021/12/29 07:40:15;;;;;;;12.18;3.33;;;;;;;;;;4953227;29;20043;-86
2021/12/29 07:42:44;;;;;;;16.25;3.85;;;;;;;;;;4952422;29;20081;-81
2021/12/29 07:45:12;;;;;;;13.48;4.20;;;;;;;;;;4956479;28;20050;-80
2021/12/29 07:47:47;;;;;;;5.95;3.10;;;;;;;;;;4958484;29;20122;-83
2021/12/29 07:50:15;;;;;;;13.15;3.83;;;;;;;;;;4957485;29;20039;-83
2021/12/29 07:52:58;;;;;;;10.43;3.28;;;;;;;;;;4958341;29;20043;-81
2021/12/29 07:55:27;;;;;;;10.32;3.33;;;;;;;;;;4957892;28;20043;-82
2021/12/29 07:57:54;;;;;;;10.13;3.40;;;;;;;;;;4956959;29;20522;-81
2021/12/29 08:00:25;;;;;;;10.68;2.83;;;;;;;;;;4958330;29;20031;-78
2021/12/29 08:02:53;;;;;;;10.80;3.00;;;;;;;;;;4958132;29;20455;-84
2021/12/29 08:05:22;;;;;;;8.60;2.72;;;;;;;;;;4958600;29;20039;-81
2021/12/29 08:07:50;;;;;;;13.35;3.55;;;;;;;;;;4957584;29;20094;-84
2021/12/29 08:10:17;;;;;;;12.00;4.10;;;;;;;;;;4958100;29;20406;-84
2021/12/29 08:12:45;;;;;;;8.55;3.05;;;;;;;;;;4957867;29;20050;-84
2021/12/29 08:15:13;;;;;;;7.68;3.03;;;;;;;;;;4956729;29;20062;-83
2021/12/29 08:17:41;;;;;;;10.30;2.55;;;;;;;;;;4956573;29;20050;-83
2021/12/29 08:20:09;;;;;;;8.23;2.25;;;;;;;;;;4957931;29;20050;-81
2021/12/29 08:22:37;;;;;;;10.00;2.70;;;;;;;;;;4956351;29;20529;-80
2021/12/29 08:25:04;;;;;;;8.73;2.97;;;;;;;;;;4956412;29;20050;-81
2021/12/29 08:27:33;;;;;;;8.75;2.70;;;;;;;;;;4957619;29;20062;-79
2021/12/29 08:30:01;;;;;;;8.90;3.28;;;;;;;;;;4956584;29;20051;-84
2021/12/29 08:32:28;;;;;;;11.27;4.00;;;;;;;;;;4957604;29;20389;-81
2021/12/29 08:34:56;;;;;;;10.25;4.40;;;;;;;;;;4956308;29;20043;-81
2021/12/29 08:37:23;;;;;;;10.23;3.97;;;;;;;;;;4957519;29;20051;-84
2021/12/29 08:39:51;;;;;;;11.02;4.03;;;;;;;;;;4956998;29;20090;-80
2021/12/29 08:42:22;;;;;;;14.52;4.72;;;;;;;;;;4957146;29;20478;-81
2021/12/29 08:44:49;;;;;;;13.52;4.47;;;;;;;;;;4957050;29;20499;-81
2021/12/29 08:47:17;;;;;;;18.88;6.13;;;;;;;;;;4956923;29;20577;-81
2021/12/29 08:49:45;;;;;;;15.45;6.25;;;;;;;;;;4957483;29;20043;-82
2021/12/29 08:52:12;;;;;;;18.67;7.25;;;;;;;;;;4955793;29;20039;-82
2021/12/29 08:54:40;;;;;;;14.75;6.20;;;;;;;;;;4955111;28;20051;-81
2021/12/29 08:57:09;;;;;;;15.20;5.28;;;;;;;;;;4955179;29;20086;-81
2021/12/29 08:59:36;;;;;;;15.63;5.07;;;;;;;;;;4957305;29;20043;-85
2021/12/29 09:02:04;;;;;;;11.07;4.18;;;;;;;;;;4957264;29;20043;-81
2021/12/29 09:04:32;;;;;;;14.65;4.63;;;;;;;;;;4955523;29;20047;-84
2021/12/29 09:07:00;;;;;;;12.93;4.30;;;;;;;;;;4956520;29;20146;-81
2021/12/29 09:09:28;;;;;;;18.05;7.95;;;;;;;;;;4956972;29;20420;-81
2021/12/29 09:11:58;;;;;;;11.13;3.63;;;;;;;;;;4955550;29;20087;-85
2021/12/29 09:14:29;;;;;;;9.30;3.00;;;;;;;;;;4956696;29;20051;-84
2021/12/29 09:16:57;;;;;;;14.60;3.67;;;;;;;;;;4956914;29;20047;-83
2021/12/29 09:19:25;;;;;;;16.45;3.42;;;;;;;;;;4955267;29;20055;-81
2021/12/29 09:21:56;;;;;;;17.13;3.53;;;;;;;;;;4955238;29;20138;-85
2021/12/29 09:24:24;;;;;;;12.55;3.35;;;;;;;;;;4955392;29;20047;-81
2021/12/29 09:26:53;;;;;;;10.38;3.08;;;;;;;;;;4955344;29;20043;-81
2021/12/29 09:29:23;;;;;;;14.45;4.22;;;;;;;;;;4955398;29;20122;-81
2021/12/29 09:31:51;;;;;;;10.57;3.40;;;;;;;;;;4956288;29;20123;-84
2021/12/29 09:34:19;;;;;;;7.80;2.63;;;;;;;;;;4956403;29;20411;-81
2021/12/29 09:36:48;;;;;;;9.68;3.75;;;;;;;;;;4956431;29;20051;-84
2021/12/29 09:39:17;;;;;;;11.85;3.63;;;;;;;;;;4956547;29;20495;-81
2021/12/29 09:41:44;;;;;;;13.52;3.88;;;;;;;;;;4956521;29;20122;-82
2021/12/29 09:44:12;;;;;;;232.32;13.93;;;;;;;;;;4954734;29;20389;-82
2021/12/29 09:46:40;;;;;;;17.42;4.65;;;;;;;;;;4956362;29;20050;-81
2021/12/29 09:49:08;;;;;;;10.70;4.03;;;;;;;;;;4956028;29;20106;-80
2021/12/29 09:51:36;;;;;;;20.30;4.47;;;;;;;;;;4955861;29;20524;-81
2021/12/29 09:54:04;;;;;;;23.55;4.10;;;;;;;;;;4954639;29;20042;-83
2021/12/29 09:56:32;;;;;;;48.45;5.07;;;;;;;;;;4955999;29;20067;-80
2021/12/29 09:59:00;;;;;;;23.67;4.47;;;;;;;;;;4955983;29;20039;-85
2021/12/29 10:01:28;;;;;;;12.23;4.15;;;;;;;;;;4956028;29;20042;-84
2021/12/29 10:03:57;;;;;;;7.80;3.03;;;;;;;;;;4954547;29;20047;-84
2021/12/29 10:06:26;;;;;;;13.90;5.45;;;;;;;;;;4955321;28;20499;-84
2021/12/29 10:08:54;;;;;;;31.75;6.35;;;;;;;;;;4954777;29;20055;-82
2021/12/29 10:11:31;;;;;;;16.95;7.05;;;;;;;;;;4955917;29;20074;-78
2021/12/29 10:14:00;;;;;;;11.05;3.80;;;;;;;;;;4955803;29;20051;-79
2021/12/29 10:16:29;;;;;;;13.00;5.35;;;;;;;;;;4954366;29;20047;-79
2021/12/29 10:19:15;;;;;;;12.77;5.30;;;;;;;;;;4955548;29;20035;-79
2021/12/29 10:21:45;;;;;;;7.93;3.00;;;;;;;;;;4955304;29;20090;-79
2021/12/29 10:24:13;;;;;;;11.02;3.78;;;;;;;;;;4954343;28;20046;-79
2021/12/29 10:26:43;;;;;;;18.23;4.78;;;;;;;;;;4954713;29;20122;-82
2021/12/29 10:29:12;;;;;;;14.65;5.20;;;;;;;;;;4954718;29;20094;-81
2021/12/29 10:31:42;;;;;;;13.18;5.57;;;;;;;;;;4954516;29;20043;-79
2021/12/29 10:34:11;;;;;;;17.40;5.28;;;;;;;;;;4954864;29;20066;-81
2021/12/29 10:36:39;;;;;;;33.15;7.32;;;;;;;;;;4955324;29;20046;-78
2021/12/29 10:39:18;;;;;;;19.05;6.00;;;;;;;;;;4954405;29;20586;-79
2021/12/29 10:42:06;;;;;;;15.93;5.45;;;;;;;;;;5056544;23;20036;-80
2021/12/29 10:44:39;;;;;;;13.93;6.30;;;;;;;;;;5037834;28;20503;-79
2021/12/29 10:47:16;;;;;;;11.57;5.57;;;;;;;;;;5051722;28;20484;-80
2021/12/29 10:50:01;;;;;;;21.10;6.20;;;;;;;;;;5052574;28;20123;-78
2021/12/29 10:52:33;;;;;;;15.73;6.35;;;;;;;;;;5040755;28;20123;-74
2021/12/29 10:55:04;;;;;;;16.25;6.45;;;;;;;;;;5035018;28;20547;-79
2021/12/29 10:57:31;;;;;;;12.27;5.40;;;;;;;;;;5035776;28;20127;-81
2021/12/29 10:59:59;;;;;;;13.52;5.15;;;;;;;;;;5052706;28;20037;-83
2021/12/29 11:02:32;;;;;;;12.20;4.93;;;;;;;;;;5035299;28;20041;-82
2021/12/29 11:05:04;;;;;;;12.65;5.35;;;;;;;;;;5034493;28;20041;-82
2021/12/29 11:07:32;;;;;;;8.90;4.32;;;;;;;;;;5035085;28;20055;-86
2021/12/29 11:10:09;;;;;;;9.60;3.38;;;;;;;;;;5038170;28;20049;-84
2021/12/29 11:12:49;;;;;;;10.45;3.58;;;;;;;;;;5041398;28;20132;-86
2021/12/29 11:15:41;;;;;;;10.85;4.13;;;;;;;;;;5057074;28;20041;-86
2021/12/29 11:18:10;;;;;;;9.68;4.10;;;;;;;;;;5019413;28;20041;-82
2021/12/29 11:20:40;;;;;;;12.93;4.97;;;;;;;;;;5036331;28;20079;-85
2021/12/29 11:23:09;;;;;;;13.93;5.38;;;;;;;;;;5059391;28;20047;-82
2021/12/29 11:25:38;;;;;;;14.60;4.50;;;;;;;;;;5056813;28;20072;-82
2021/12/29 11:28:05;;;;;;;9.50;2.95;;;;;;;;;;5039853;28;20048;-85
2021/12/29 11:30:34;;;;;;;8.43;2.42;;;;;;;;;;5054954;28;20088;-84
2021/12/29 11:33:07;;;;;;;6.05;2.20;;;;;;;;;;5034936;28;20041;-84
2021/12/29 11:35:45;;;;;;;5.80;2.08;;;;;;;;;;5052689;28;20045;-82
2021/12/29 11:38:12;;;;;;;3.53;2.22;;;;;;;;;;5050214;28;20045;-81
2021/12/29 11:40:41;;;;;;;5.35;2.40;;;;;;;;;;5055304;28;20459;-83
2021/12/29 11:43:09;;;;;;;5.07;1.98;;;;;;;;;;5034635;28;20037;-84
2021/12/29 11:45:37;;;;;;;6.80;2.20;;;;;;;;;;5052496;28;20075;-84
2021/12/29 11:48:05;;;;;;;8.25;2.80;;;;;;;;;;5036556;28;20480;-83
2021/12/29 11:50:35;;;;;;;9.60;3.30;;;;;;;;;;5053025;28;20463;-82
2021/12/29 11:53:22;;;;;;;10.23;3.28;;;;;;;;;;5035073;28;20048;-81
2021/12/29 11:55:56;;;;;;;9.52;3.50;;;;;;;;;;5053436;28;20136;-83
2021/12/29 11:58:32;;;;;;;10.32;4.47;;;;;;;;;;5055832;28;20112;-81
2021/12/29 12:01:00;;;;;;;8.50;4.70;;;;;;;;;;5040295;28;20355;-84
2021/12/29 12:03:53;;;;;;;10.82;4.82;;;;;;;;;;5034879;28;20412;-82
2021/12/29 12:06:40;;;;;;;8.88;4.57;;;;;;;;;;5034833;28;20045;-82
2021/12/29 12:09:25;;;;;;;9.77;3.80;;;;;;;;;;5060934;28;20068;-86
2021/12/29 12:11:54;;;;;;;7.38;3.53;;;;;;;;;;5051936;28;20128;-82
2021/12/29 12:14:26;;;;;;;8.38;3.67;;;;;;;;;;5052600;28;20037;-82
2021/12/29 12:17:14;;;;;;;7.10;3.80;;;;;;;;;;5051919;28;20378;-81
2021/12/29 12:19:42;;;;;;;7.47;3.95;;;;;;;;;;5037783;28;20140;-81
2021/12/29 12:22:11;;;;;;;6.05;3.20;;;;;;;;;;5020237;28;20056;-84
2021/12/29 12:24:59;;;;;;;7.57;3.72;;;;;;;;;;5053892;28;20090;-84
2021/12/29 12:27:28;;;;;;;12.93;4.35;;;;;;;;;;5036323;28;20063;-84
2021/12/29 12:30:01;;;;;;;8.90;4.05;;;;;;;;;;5057700;28;20049;-82
2021/12/29 12:32:39;;;;;;;8.88;3.53;;;;;;;;;;5055246;28;20056;-84
2021/12/29 12:35:07;;;;;;;15.07;4.07;;;;;;;;;;5062256;28;20115;-84
2021/12/29 12:37:42;;;;;;;7.47;3.55;;;;;;;;;;5038947;28;20098;-82
2021/12/29 12:40:12;;;;;;;7.25;3.08;;;;;;;;;;5039844;28;20045;-84
2021/12/29 12:42:41;;;;;;;9.40;3.60;;;;;;;;;;5038723;28;20508;-84
2021/12/29 12:45:19;;;;;;;7.05;3.70;;;;;;;;;;5057119;28;20075;-81
2021/12/29 12:47:48;;;;;;;11.75;3.90;;;;;;;;;;5058217;28;20048;-85
2021/12/29 12:50:23;;;;;;;15.13;4.93;;;;;;;;;;5058733;28;20045;-82
2021/12/29 12:52:52;;;;;;;8.40;4.13;;;;;;;;;;5021646;28;20468;-81
2021/12/29 12:55:20;;;;;;;11.35;4.35;;;;;;;;;;5037354;28;20033;-81
2021/12/29 12:57:50;;;;;;;11.27;3.67;;;;;;;;;;5038412;28;20065;-83
2021/12/29 13:00:20;;;;;;;8.73;3.55;;;;;;;;;;5037456;28;20136;-83
2021/12/29 13:02:49;;;;;;;7.68;3.28;;;;;;;;;;5055536;28;20048;-81
2021/12/29 13:05:19;;;;;;;9.02;3.80;;;;;;;;;;5037068;28;20140;-84
2021/12/29 13:07:58;;;;;;;12.05;5.85;;;;;;;;;;5032650;28;20045;-81
2021/12/29 13:10:27;;;;;;;12.77;6.57;;;;;;;;;;5035423;28;20132;-82
2021/12/29 13:12:59;;;;;;;13.48;6.70;;;;;;;;;;5000710;28;20049;-83
2021/12/29 13:15:29;;;;;;;17.98;7.65;;;;;;;;;;5041627;28;20041;-83
2021/12/29 13:17:57;;;;;;;10.68;6.03;;;;;;;;;;5037273;28;20049;-85
2021/12/29 13:20:24;;;;;;;14.30;5.97;;;;;;;;;;5036568;28;20037;-85
2021/12/29 13:22:52;;;;;;;6.13;1.90;;;;;;;;;;5037148;28;20067;-85
2021/12/29 13:25:28;;;;;;;4.90;1.77;;;;;;;;;;5037307;28;20044;-84
2021/12/29 13:28:02;;;;;;;5.60;1.77;;;;;;;;;;5055020;28;20208;-85
2021/12/29 13:30:31;;;;;;;3.40;1.23;;;;;;;;;;5037141;28;20059;-82
2021/12/29 13:33:00;;;;;;;4.47;1.88;;;;;;;;;;5036379;28;20048;-82
2021/12/29 13:35:30;;;;;;;5.43;1.35;;;;;;;;;;5037119;28;20041;-84
2021/12/29 13:37:59;;;;;;;4.63;1.88;;;;;;;;;;5054747;28;20045;-85
2021/12/29 13:40:31;;;;;;;8.23;1.58;;;;;;;;;;5037389;28;20099;-83
2021/12/29 13:42:58;;;;;;;4.45;1.52;;;;;;;;;;5035991;28;20423;-82
2021/12/29 13:45:27;;;;;;;8.25;2.85;;;;;;;;;;5037554;28;20170;-85
2021/12/29 13:47:56;;;;;;;5.45;2.78;;;;;;;;;;5037151;28;20045;-86
2021/12/29 13:50:23;;;;;;;7.10;2.78;;;;;;;;;;5020348;28;20045;-82
2021/12/29 13:53:07;;;;;;;4.15;2.42;;;;;;;;;;5054422;28;20041;-85
2021/12/29 13:55:37;;;;;;;5.53;2.50;;;;;;;;;;5050771;28;20068;-82
2021/12/29 13:58:05;;;;;;;3.90;2.35;;;;;;;;;;5044576;28;20033;-82
2021/12/29 14:00:35;;;;;;;4.25;1.98;;;;;;;;;;5056320;28;20139;-82
2021/12/29 14:03:03;;;;;;;4.18;1.23;;;;;;;;;;5062199;28;20045;-82
2021/12/29 14:05:42;;;;;;;4.95;1.60;;;;;;;;;;5036109;28;20052;-85
2021/12/29 14:08:12;;;;;;;6.55;1.92;;;;;;;;;;5049007;28;20049;-81
2021/12/29 14:10:44;;;;;;;4.38;1.40;;;;;;;;;;5052418;28;20107;-83
2021/12/29 14:13:15;;;;;;;10.00;1.92;;;;;;;;;;5035660;28;20049;-84
2021/12/29 14:15:43;;;;;;;6.53;1.70;;;;;;;;;;5026409;28;20044;-84
2021/12/29 14:18:19;;;;;;;6.32;2.15;;;;;;;;;;5017597;28;20382;-83
2021/12/29 14:20:48;;;;;;;6.15;2.00;;;;;;;;;;5019847;28;20514;-83
2021/12/29 14:23:33;;;;;;;7.53;2.63;;;;;;;;;;5039726;28;20148;-82
2021/12/29 14:26:08;;;;;;;7.55;2.38;;;;;;;;;;5027893;28;20047;-81
2021/12/29 14:28:38;;;;;;;6.32;2.17;;;;;;;;;;5026515;28;20045;-81
2021/12/29 14:31:13;;;;;;;7.70;3.03;;;;;;;;;;5042930;28;20045;-82
2021/12/29 14:33:42;;;;;;;5.07;2.97;;;;;;;;;;5027222;28;20420;-81
2021/12/29 14:36:12;;;;;;;9.57;2.92;;;;;;;;;;5041372;28;20068;-81
2021/12/29 14:38:45;;;;;;;6.25;2.55;;;;;;;;;;5024331;28;20136;-81
2021/12/29 14:41:21;;;;;;;7.88;2.72;;;;;;;;;;5016225;28;20041;-82
2021/12/29 14:43:57;;;;;;;5.15;2.20;;;;;;;;;;4999628;28;20063;-80
2021/12/29 14:46:25;;;;;;;8.77;2.17;;;;;;;;;;5045340;28;20488;-79
2021/12/29 14:48:58;;;;;;;5.88;2.10;;;;;;;;;;5041410;28;20407;-80
2021/12/29 14:51:27;;;;;;;8.63;1.95;;;;;;;;;;5025296;28;20503;-83
2021/12/29 14:54:09;;;;;;;6.53;2.10;;;;;;;;;;5040729;28;20037;-79
2021/12/29 14:56:37;;;;;;;7.90;1.90;;;;;;;;;;5043916;28;20037;-80
2021/12/29 14:59:13;;;;;;;3.88;1.15;;;;;;;;;;5042294;28;20084;-84
2021/12/29 15:02:02;;;;;;;4.60;1.98;;;;;;;;;;5028001;28;20044;-80